createdAt,value
2023-05-04T00:00:08.534Z,6.62
2023-05-04T00:02:36.092Z,6.48
2023-05-04T00:05:04.462Z,6.55
2023-05-04T00:07:31.814Z,6.40
2023-05-04T00:10:00.557Z,6.44
2023-05-04T00:12:28.344Z,6.48
2023-05-04T00:14:57.109Z,6.40
2023-05-04T00:17:24.562Z,6.20
2023-05-04T00:19:51.941Z,6.30
2023-05-04T00:22:19.482Z,6.27
2023-05-04T00:24:46.903Z,6.37
2023-05-04T00:27:14.301Z,6.42
2023-05-04T00:29:41.692Z,6.26
2023-05-04T00:32:10.739Z,6.02
2023-05-04T00:34:38.442Z,6.24
2023-05-04T00:37:06.678Z,6.28
2023-05-04T00:39:35.124Z,6.33
2023-05-04T00:42:03.045Z,5.92
2023-05-04T00:44:30.508Z,6.08
2023-05-04T00:46:58.343Z,6.12
2023-05-04T00:49:27.591Z,6.10
2023-05-04T00:51:57.625Z,6.10
2023-05-04T00:54:25.923Z,5.90
2023-05-04T00:56:53.781Z,5.64
2023-05-04T00:59:21.153Z,5.88
2023-05-04T01:01:48.808Z,5.62
2023-05-04T01:04:16.748Z,5.76
2023-05-04T01:06:49.559Z,5.90
2023-05-04T01:09:24.712Z,5.81
2023-05-04T01:11:59.146Z,5.56
2023-05-04T01:14:26.683Z,5.42
2023-05-04T01:16:57.491Z,5.70
2023-05-04T01:19:27.543Z,5.76
2023-05-04T01:21:57.002Z,5.69
2023-05-04T01:24:25.097Z,5.64
2023-05-04T01:26:55.962Z,5.54
2023-05-04T01:29:29.477Z,5.72
2023-05-04T01:31:57.673Z,5.81
2023-05-04T01:34:25.164Z,5.85
2023-05-04T01:36:53.296Z,5.88
2023-05-04T01:39:22.076Z,5.72
2023-05-04T01:41:49.649Z,5.54
2023-05-04T01:44:17.378Z,5.63
2023-05-04T01:46:44.890Z,5.69
2023-05-04T01:49:12.305Z,5.46
2023-05-04T01:51:39.686Z,5.55
2023-05-04T01:54:07.081Z,5.51
2023-05-04T01:56:35.842Z,5.63
2023-05-04T01:59:03.230Z,5.63
2023-05-04T02:01:30.738Z,5.56
2023-05-04T02:03:58.287Z,5.39
2023-05-04T02:06:25.856Z,5.37
2023-05-04T02:08:54.256Z,5.36
2023-05-04T02:11:21.664Z,5.38
2023-05-04T02:13:50.407Z,5.32
2023-05-04T02:16:17.983Z,5.29
2023-05-04T02:18:46.449Z,5.29
2023-05-04T02:21:13.896Z,4.94
2023-05-04T02:23:41.277Z,4.99
2023-05-04T02:26:08.675Z,4.87
2023-05-04T02:28:36.038Z,5.13
2023-05-04T02:31:04.752Z,5.16
2023-05-04T02:33:32.085Z,5.03
2023-05-04T02:35:59.505Z,4.97
2023-05-04T02:38:27.581Z,4.87
2023-05-04T02:40:54.982Z,4.90
2023-05-04T02:43:22.390Z,4.92
2023-05-04T02:45:49.795Z,4.79
2023-05-04T02:48:18.551Z,4.85
2023-05-04T02:50:46.617Z,4.72
2023-05-04T02:53:13.993Z,4.85
2023-05-04T02:55:41.359Z,4.59
2023-05-04T02:58:08.765Z,4.69
2023-05-04T03:00:36.278Z,4.83
2023-05-04T03:03:03.802Z,4.78
2023-05-04T03:05:32.656Z,4.81
2023-05-04T03:08:00.140Z,4.74
2023-05-04T03:10:27.554Z,4.84
2023-05-04T03:12:55.025Z,4.91
2023-05-04T03:15:22.961Z,4.88
2023-05-04T03:17:50.364Z,4.58
2023-05-04T03:20:19.101Z,4.77
2023-05-04T03:22:48.115Z,4.77
2023-05-04T03:25:15.573Z,4.81
2023-05-04T03:27:42.970Z,4.50
2023-05-04T03:30:11.708Z,4.58
2023-05-04T03:32:39.126Z,4.64
2023-05-04T03:35:07.368Z,4.22
2023-05-04T03:37:34.789Z,4.38
2023-05-04T03:40:03.695Z,4.20
2023-05-04T03:42:31.468Z,4.39
2023-05-04T03:44:58.881Z,4.54
2023-05-04T03:47:26.310Z,4.67
2023-05-04T03:49:53.682Z,4.74
2023-05-04T03:52:21.115Z,4.81
2023-05-04T03:54:48.506Z,4.84
2023-05-04T03:57:17.254Z,4.69
2023-05-04T03:59:44.817Z,4.73
2023-05-04T04:02:13.058Z,4.82
2023-05-04T04:04:40.659Z,4.91
2023-05-04T04:07:08.124Z,4.94
2023-05-04T04:09:35.623Z,5.01
2023-05-04T04:12:03.132Z,4.94
2023-05-04T04:14:31.861Z,4.98
2023-05-04T04:16:59.257Z,5.05
2023-05-04T04:19:26.683Z,4.90
2023-05-04T04:21:54.164Z,4.90
2023-05-04T04:24:22.027Z,5.05
2023-05-04T04:26:49.424Z,4.94
2023-05-04T04:29:16.804Z,4.88
2023-05-04T04:31:46.875Z,5.02
2023-05-04T04:34:14.330Z,4.68
2023-05-04T04:36:45.041Z,4.92
2023-05-04T04:39:12.506Z,5.02
2023-05-04T04:41:39.902Z,5.44
2023-05-04T04:44:07.500Z,5.38
2023-05-04T04:46:36.754Z,5.98
2023-05-04T04:49:05.525Z,8.32
2023-05-04T04:51:32.967Z,8.91
2023-05-04T04:54:00.348Z,9.48
2023-05-04T04:56:28.050Z,8.64
2023-05-04T04:58:55.440Z,9.09
2023-05-04T05:01:22.881Z,7.98
2023-05-04T05:03:50.806Z,7.48
2023-05-04T05:06:20.677Z,7.97
2023-05-04T05:08:48.051Z,7.97
2023-05-04T05:11:15.832Z,8.62
2023-05-04T05:13:43.208Z,8.43
2023-05-04T05:16:10.664Z,7.89
2023-05-04T05:18:38.100Z,8.36
2023-05-04T05:21:06.172Z,8.62
2023-05-04T05:23:35.573Z,8.63
2023-05-04T05:26:03.485Z,8.17
2023-05-04T05:28:31.003Z,8.65
2023-05-04T05:30:58.416Z,9.05
2023-05-04T05:33:25.820Z,8.98
2023-05-04T05:35:54.024Z,9.36
2023-05-04T05:38:21.697Z,9.47
2023-05-04T05:40:50.468Z,9.72
2023-05-04T05:43:17.860Z,10.16
2023-05-04T05:45:45.230Z,10.31
2023-05-04T05:48:12.659Z,10.72
2023-05-04T05:50:40.110Z,10.96
2023-05-04T05:53:07.510Z,10.68
2023-05-04T05:55:34.914Z,10.84
2023-05-04T05:58:03.901Z,10.55
2023-05-04T06:00:31.417Z,10.50
2023-05-04T06:02:59.300Z,10.34
2023-05-04T06:05:26.831Z,10.68
2023-05-04T06:07:54.238Z,10.67
2023-05-04T06:10:21.638Z,10.95
2023-05-04T06:12:49.183Z,11.35
2023-05-04T06:15:18.521Z,11.23
2023-05-04T06:17:45.969Z,11.70
2023-05-04T06:20:13.961Z,11.47
2023-05-04T06:22:41.389Z,11.12
2023-05-04T06:25:09.305Z,11.30
2023-05-04T06:27:37.043Z,10.66
2023-05-04T06:30:05.405Z,11.19
2023-05-04T06:32:35.148Z,11.17
2023-05-04T06:35:03.009Z,11.19
2023-05-04T06:37:30.444Z,11.38
2023-05-04T06:39:57.851Z,12.23
2023-05-04T06:42:25.504Z,12.50
2023-05-04T06:44:53.202Z,12.58
2023-05-04T06:47:20.784Z,12.38
2023-05-04T06:49:50.800Z,12.51
2023-05-04T06:52:18.244Z,12.79
2023-05-04T06:54:46.235Z,12.71
2023-05-04T06:57:13.677Z,12.72
2023-05-04T06:59:41.084Z,13.20
2023-05-04T07:02:08.479Z,13.04
2023-05-04T07:04:38.916Z,12.91
2023-05-04T07:07:07.586Z,13.34
2023-05-04T07:09:35.106Z,13.88
2023-05-04T07:12:02.906Z,14.08
2023-05-04T07:14:30.280Z,14.19
2023-05-04T07:16:57.707Z,14.50
2023-05-04T07:19:25.154Z,14.68
2023-05-04T07:21:52.510Z,15.09
2023-05-04T07:24:21.232Z,14.87
2023-05-04T07:26:48.591Z,15.40
2023-05-04T07:29:18.206Z,15.16
2023-05-04T07:31:45.638Z,15.27
2023-05-04T07:34:13.110Z,15.53
2023-05-04T07:36:42.035Z,15.98
2023-05-04T07:39:10.884Z,16.17
2023-05-04T07:41:39.596Z,15.88
2023-05-04T07:44:08.699Z,15.99
2023-05-04T07:46:36.128Z,15.93
2023-05-04T07:49:03.856Z,16.31
2023-05-04T07:51:31.665Z,15.61
2023-05-04T07:53:59.087Z,16.33
2023-05-04T07:56:26.576Z,16.36
2023-05-04T07:58:55.944Z,17.22
2023-05-04T08:01:24.618Z,16.70
2023-05-04T08:03:52.080Z,16.71
2023-05-04T08:06:19.526Z,17.29
2023-05-04T08:08:51.420Z,17.60
2023-05-04T08:11:21.106Z,16.92
2023-05-04T08:13:49.323Z,17.12
2023-05-04T08:16:18.096Z,17.69
2023-05-04T08:18:45.546Z,16.78
2023-05-04T08:21:13.288Z,17.39
2023-05-04T08:23:40.682Z,17.59
2023-05-04T08:26:08.067Z,16.77
2023-05-04T08:28:37.491Z,16.98
2023-05-04T08:31:04.945Z,18.01
2023-05-04T08:33:34.084Z,17.02
2023-05-04T08:36:01.609Z,17.60
2023-05-04T08:38:29.817Z,17.66
2023-05-04T08:40:57.553Z,17.79
2023-05-04T08:43:25.300Z,18.59
2023-05-04T08:45:52.859Z,18.67
2023-05-04T08:48:20.323Z,18.61
2023-05-04T08:50:49.323Z,18.74
2023-05-04T08:53:20.073Z,18.64
2023-05-04T08:55:49.901Z,18.18
2023-05-04T08:58:19.892Z,18.14
2023-05-04T09:00:47.653Z,18.65
2023-05-04T09:03:16.886Z,18.73
2023-05-04T09:05:46.084Z,18.89
2023-05-04T09:08:16.194Z,18.74
2023-05-04T09:10:43.621Z,18.81
2023-05-04T09:13:11.352Z,18.95
2023-05-04T09:15:38.858Z,19.12
2023-05-04T09:18:09.739Z,19.35
2023-05-04T09:20:45.193Z,19.56
2023-05-04T09:23:13.157Z,18.40
2023-05-04T09:25:49.268Z,18.74
2023-05-04T09:28:18.181Z,19.10
2023-05-04T09:30:45.822Z,19.25
2023-05-04T09:33:13.395Z,19.53
2023-05-04T09:35:42.813Z,19.44
2023-05-04T09:38:10.237Z,19.35
2023-05-04T09:40:40.967Z,19.77
2023-05-04T09:43:10.688Z,20.71
2023-05-04T09:45:42.716Z,20.62
2023-05-04T09:48:17.262Z,20.52
2023-05-04T09:50:52.774Z,19.48
2023-05-04T09:53:23.024Z,19.71
2023-05-04T09:55:59.977Z,19.10
2023-05-04T09:58:31.805Z,19.50
2023-05-04T10:01:01.510Z,19.42
2023-05-04T10:03:29.986Z,18.83
2023-05-04T10:05:59.112Z,20.13
2023-05-04T10:08:27.992Z,19.65
2023-05-04T10:10:55.602Z,20.56
2023-05-04T10:13:22.983Z,20.54
2023-05-04T10:16:02.689Z,20.99
2023-05-04T10:18:59.408Z,21.06
2023-05-04T10:21:33.586Z,20.05
2023-05-04T10:24:30.638Z,20.71
2023-05-04T10:27:09.774Z,20.10
2023-05-04T10:29:38.321Z,21.41
2023-05-04T10:32:17.612Z,21.65
2023-05-04T10:34:45.330Z,21.68
2023-05-04T10:37:17.786Z,21.23
2023-05-04T10:39:52.675Z,20.51
2023-05-04T10:42:20.424Z,21.05
2023-05-04T10:44:52.128Z,21.48
2023-05-04T10:47:30.718Z,22.23
2023-05-04T10:50:03.077Z,21.22
2023-05-04T10:52:30.599Z,18.83
2023-05-04T10:55:02.597Z,20.05
2023-05-04T10:57:31.100Z,21.00
2023-05-04T10:59:59.809Z,21.17
2023-05-04T11:02:32.475Z,22.18
2023-05-04T11:05:04.284Z,21.09
2023-05-04T11:07:36.646Z,21.47
2023-05-04T11:10:04.755Z,21.34
2023-05-04T11:12:32.675Z,21.23
2023-05-04T11:15:08.367Z,21.68
2023-05-04T11:17:48.562Z,19.97
2023-05-04T11:20:23.440Z,21.18
2023-05-04T11:22:51.724Z,20.79
2023-05-04T11:25:28.179Z,21.95
2023-05-04T11:27:55.656Z,21.26
2023-05-04T11:30:31.524Z,22.09
2023-05-04T11:33:00.923Z,21.75
2023-05-04T11:35:28.463Z,21.42
2023-05-04T11:37:56.350Z,21.68
2023-05-04T11:40:24.711Z,21.14
2023-05-04T11:42:56.136Z,20.54
2023-05-04T11:45:27.010Z,20.83
2023-05-04T11:47:56.491Z,21.05
2023-05-04T11:50:27.308Z,21.90
2023-05-04T11:53:04.906Z,21.64
2023-05-04T11:55:33.011Z,22.32
2023-05-04T11:58:01.442Z,22.01
2023-05-04T12:00:38.606Z,21.95
2023-05-04T12:03:07.438Z,21.76
2023-05-04T12:05:37.633Z,22.36
2023-05-04T12:08:07.377Z,21.22
2023-05-04T12:10:35.258Z,21.70
2023-05-04T12:13:03.146Z,21.85
2023-05-04T12:15:32.921Z,20.46
2023-05-04T12:18:02.846Z,20.66
2023-05-04T12:20:31.623Z,22.05
2023-05-04T12:23:06.821Z,22.74
2023-05-04T12:25:34.528Z,22.75
2023-05-04T12:28:04.631Z,21.17
2023-05-04T12:30:32.200Z,21.11
2023-05-04T12:32:59.725Z,22.24
2023-05-04T12:35:27.219Z,22.30
2023-05-04T12:37:54.808Z,21.70
2023-05-04T12:40:28.794Z,22.43
2023-05-04T12:42:56.711Z,21.82
2023-05-04T12:45:24.090Z,22.24
2023-05-04T12:47:51.523Z,22.87
2023-05-04T12:50:18.918Z,22.82
2023-05-04T12:52:46.298Z,23.50
2023-05-04T12:55:13.836Z,22.61
2023-05-04T12:57:44.554Z,22.53
2023-05-04T13:00:12.938Z,23.27
2023-05-04T13:02:40.338Z,22.45
2023-05-04T13:05:09.066Z,23.16
2023-05-04T13:07:36.495Z,23.05
2023-05-04T13:10:04.118Z,22.92
2023-05-04T13:12:31.766Z,21.70
2023-05-04T13:15:00.934Z,20.74
2023-05-04T13:17:29.622Z,20.82
2023-05-04T13:19:57.072Z,20.95
2023-05-04T13:22:24.451Z,21.71
2023-05-04T13:24:51.810Z,22.07
2023-05-04T13:27:19.237Z,21.84
2023-05-04T13:29:46.764Z,22.21
2023-05-04T13:32:15.462Z,21.35
2023-05-04T13:34:43.468Z,21.73
2023-05-04T13:37:12.429Z,21.99
2023-05-04T13:39:41.153Z,22.32
2023-05-04T13:42:08.759Z,21.64
2023-05-04T13:44:36.869Z,21.79
2023-05-04T13:47:04.916Z,22.64
2023-05-04T13:49:33.980Z,22.81
2023-05-04T13:52:02.743Z,21.44
2023-05-04T13:54:30.275Z,22.33
2023-05-04T13:56:57.682Z,21.35
2023-05-04T13:59:25.207Z,20.90
2023-05-04T14:01:53.207Z,21.17
2023-05-04T14:04:20.929Z,21.54
2023-05-04T14:06:51.107Z,21.58
2023-05-04T14:09:19.118Z,22.42
2023-05-04T14:11:47.478Z,22.41
2023-05-04T14:14:15.266Z,21.92
2023-05-04T14:16:42.719Z,21.25
2023-05-04T14:19:10.156Z,21.37
2023-05-04T14:21:37.691Z,21.75
2023-05-04T14:24:06.655Z,21.56
2023-05-04T14:26:35.035Z,20.62
2023-05-04T14:29:02.618Z,21.47
2023-05-04T14:31:30.124Z,21.07
2023-05-04T14:33:57.522Z,22.08
2023-05-04T14:36:24.988Z,22.28
2023-05-04T14:38:53.353Z,21.71
2023-05-04T14:41:22.054Z,21.87
2023-05-04T14:43:49.443Z,21.74
2023-05-04T14:46:16.846Z,22.35
2023-05-04T14:48:44.259Z,22.12
2023-05-04T14:51:13.309Z,22.42
2023-05-04T14:53:41.015Z,22.43
2023-05-04T14:56:08.551Z,22.46
2023-05-04T14:58:37.368Z,22.08
2023-05-04T15:01:04.947Z,22.27
2023-05-04T15:03:32.424Z,22.58
2023-05-04T15:05:59.952Z,22.54
2023-05-04T15:08:27.351Z,22.68
2023-05-04T15:10:58.082Z,22.45
2023-05-04T15:13:25.751Z,22.04
2023-05-04T15:15:54.569Z,21.67
2023-05-04T15:18:23.884Z,22.15
2023-05-04T15:20:51.264Z,22.08
2023-05-04T15:23:18.676Z,21.43
2023-05-04T15:25:46.104Z,21.51
2023-05-04T15:28:13.535Z,21.41
2023-05-04T15:30:42.077Z,21.20
2023-05-04T15:33:11.131Z,21.41
2023-05-04T15:35:39.031Z,21.28
2023-05-04T15:38:06.454Z,21.61
2023-05-04T15:40:33.855Z,21.57
2023-05-04T15:43:01.223Z,21.66
2023-05-04T15:45:28.673Z,21.64
2023-05-04T15:47:58.313Z,21.84
2023-05-04T15:50:27.168Z,21.47
2023-05-04T15:52:54.606Z,21.79
2023-05-04T15:55:25.350Z,21.90
2023-05-04T15:57:54.125Z,21.16
2023-05-04T16:00:22.210Z,20.84
2023-05-04T16:02:49.636Z,21.14
2023-05-04T16:05:17.047Z,21.15
2023-05-04T16:07:45.771Z,21.04
2023-05-04T16:10:13.228Z,20.84
2023-05-04T16:12:41.359Z,20.75
2023-05-04T16:15:09.160Z,20.62
2023-05-04T16:17:36.671Z,20.81
2023-05-04T16:20:05.848Z,20.64
2023-05-04T16:22:34.050Z,20.55
2023-05-04T16:27:53.993Z,20.44
2023-05-04T16:30:21.624Z,20.36
2023-05-04T16:32:49.085Z,20.19
2023-05-04T16:35:16.531Z,20.25
2023-05-04T16:37:43.981Z,20.27
2023-05-04T16:40:15.073Z,19.99
2023-05-04T16:42:42.617Z,19.82
2023-05-04T16:45:13.302Z,20.01
2023-05-04T16:47:41.436Z,19.82
2023-05-04T16:50:09.877Z,19.41
2023-05-04T16:52:37.307Z,19.38
2023-05-04T16:55:05.574Z,19.77
2023-05-04T16:57:34.292Z,19.35
2023-05-04T17:00:05.658Z,19.63
2023-05-04T17:02:33.373Z,19.37
2023-05-04T17:05:00.828Z,19.43
2023-05-04T17:07:28.602Z,19.28
2023-05-04T17:09:55.997Z,19.29
2023-05-04T17:12:24.051Z,18.98
2023-05-04T17:14:52.760Z,18.86
2023-05-04T17:17:20.167Z,18.68
2023-05-04T17:19:47.535Z,19.08
2023-05-04T17:22:14.941Z,18.63
2023-05-04T17:24:44.773Z,18.64
2023-05-04T17:27:13.288Z,18.84
2023-05-04T17:29:44.063Z,18.56
2023-05-04T17:32:12.861Z,18.49
2023-05-04T17:34:40.271Z,18.37
2023-05-04T17:37:07.635Z,18.42
2023-05-04T17:39:35.066Z,18.67
2023-05-04T17:42:02.898Z,18.71
2023-05-04T17:44:30.527Z,18.62
2023-05-04T17:46:57.929Z,18.30
2023-05-04T17:49:30.046Z,18.30
2023-05-04T17:51:57.598Z,18.39
2023-05-04T17:54:25.076Z,18.34
2023-05-04T17:56:52.472Z,18.24
2023-05-04T17:59:19.970Z,18.06
2023-05-04T18:01:47.369Z,18.11
2023-05-04T18:04:14.820Z,18.14
2023-05-04T18:06:43.577Z,18.08
2023-05-04T18:09:11.602Z,17.96
2023-05-04T18:11:39.038Z,18.07
2023-05-04T18:14:07.186Z,17.88
2023-05-04T18:16:37.617Z,17.67
2023-05-04T18:19:06.390Z,17.55
2023-05-04T18:21:36.573Z,17.69
2023-05-04T18:24:06.056Z,17.62
2023-05-04T18:26:33.593Z,17.31
2023-05-04T18:29:11.178Z,17.34
2023-05-04T18:31:45.679Z,17.12
2023-05-04T18:34:13.076Z,17.21
2023-05-04T18:36:40.652Z,17.20
2023-05-04T18:39:09.588Z,17.06
2023-05-04T18:41:36.997Z,16.89
2023-05-04T18:44:05.999Z,16.82
2023-05-04T18:46:33.375Z,16.73
2023-05-04T18:49:00.748Z,16.80
2023-05-04T18:51:28.442Z,16.69
2023-05-04T18:53:55.827Z,16.64
2023-05-04T18:56:24.539Z,16.60
2023-05-04T18:58:52.051Z,16.49
2023-05-04T19:01:19.654Z,16.36
2023-05-04T19:03:47.188Z,16.33
2023-05-04T19:06:14.597Z,16.19
2023-05-04T19:08:41.994Z,16.19
2023-05-04T19:11:09.395Z,16.17
2023-05-04T19:13:38.123Z,15.83
2023-05-04T19:16:06.300Z,15.76
2023-05-04T19:18:34.784Z,15.71
2023-05-04T19:21:05.336Z,15.45
2023-05-04T19:23:32.837Z,15.50
2023-05-04T19:26:00.328Z,15.33
2023-05-04T19:28:27.879Z,15.30
2023-05-04T19:30:56.805Z,15.22
2023-05-04T19:33:36.366Z,15.16
2023-05-04T19:36:08.209Z,15.04
2023-05-04T19:38:37.690Z,14.97
2023-05-04T19:41:05.347Z,14.62
2023-05-04T19:43:34.013Z,14.28
2023-05-04T19:46:04.136Z,14.32
2023-05-04T19:48:31.536Z,14.41
2023-05-04T19:50:58.974Z,14.28
2023-05-04T19:53:26.680Z,14.30
2023-05-04T19:55:54.646Z,14.22
2023-05-04T19:58:25.819Z,14.17
2023-05-04T20:00:53.485Z,14.00
2023-05-04T20:03:22.532Z,13.76
2023-05-04T20:05:51.533Z,13.83
2023-05-04T20:08:19.027Z,13.79
2023-05-04T20:10:46.521Z,13.75
2023-05-04T20:13:14.059Z,13.69
2023-05-04T20:15:42.490Z,13.59
2023-05-04T20:18:10.018Z,13.52
2023-05-04T20:20:39.237Z,13.40
2023-05-04T20:23:07.347Z,13.32
2023-05-04T20:25:34.796Z,13.34
2023-05-04T20:28:02.143Z,13.08
2023-05-04T20:30:29.564Z,13.19
2023-05-04T20:32:56.980Z,13.27
2023-05-04T20:35:24.552Z,13.29
2023-05-04T20:37:53.620Z,13.16
2023-05-04T20:40:25.040Z,13.17
2023-05-04T20:42:55.096Z,13.35
2023-05-04T20:45:22.531Z,13.35
2023-05-04T20:47:50.213Z,13.44
2023-05-04T20:50:18.795Z,13.42
2023-05-04T20:52:46.162Z,13.44
2023-05-04T20:55:14.950Z,13.40
2023-05-04T20:57:42.400Z,13.40
2023-05-04T21:00:11.282Z,13.28
2023-05-04T21:02:38.773Z,13.32
2023-05-04T21:05:06.996Z,13.21
2023-05-04T21:07:34.407Z,13.14
2023-05-04T21:10:01.838Z,12.99
2023-05-04T21:12:30.567Z,12.86
2023-05-04T21:14:57.970Z,12.73
2023-05-04T21:17:26.330Z,12.73
2023-05-04T21:19:53.717Z,12.68
2023-05-04T21:22:21.218Z,12.61
2023-05-04T21:24:48.641Z,12.64
2023-05-04T21:27:16.156Z,12.71
2023-05-04T21:29:44.854Z,12.76
2023-05-04T21:32:12.320Z,12.66
2023-05-04T21:34:39.896Z,12.50
2023-05-04T21:37:07.254Z,12.49
2023-05-04T21:39:34.675Z,12.50
2023-05-04T21:42:02.596Z,12.20
2023-05-04T21:44:30.268Z,12.07
2023-05-04T21:46:59.545Z,12.11
2023-05-04T21:49:27.081Z,12.00
2023-05-04T21:51:54.625Z,12.00
2023-05-04T21:54:23.529Z,11.97
2023-05-04T21:56:50.985Z,11.80
2023-05-04T21:59:18.346Z,11.98
2023-05-04T22:01:45.962Z,11.95
2023-05-04T22:04:14.717Z,11.99
2023-05-04T22:06:42.104Z,12.08
2023-05-04T22:09:09.808Z,12.13
2023-05-04T22:11:37.198Z,11.79
2023-05-04T22:14:04.600Z,11.86
2023-05-04T22:16:32.046Z,11.72
2023-05-04T22:18:59.474Z,11.80
2023-05-04T22:21:28.336Z,11.51
2023-05-04T22:23:55.866Z,11.58
2023-05-04T22:26:23.228Z,11.49
2023-05-04T22:28:50.738Z,11.40
2023-05-04T22:31:18.184Z,11.45
2023-05-04T22:33:45.896Z,11.40
2023-05-04T22:36:13.505Z,11.31
2023-05-04T22:38:42.372Z,11.31
2023-05-04T22:41:09.870Z,11.15
2023-05-04T22:43:37.259Z,11.10
2023-05-04T22:46:04.844Z,10.53
2023-05-04T22:48:32.473Z,10.69
2023-05-04T22:51:01.173Z,10.82
2023-05-04T22:53:28.560Z,10.70
2023-05-04T22:55:57.306Z,10.55
2023-05-04T22:58:24.799Z,10.24
2023-05-04T23:00:52.685Z,10.50
2023-05-04T23:03:20.185Z,10.61
2023-05-04T23:05:47.631Z,10.53
2023-05-04T23:08:15.099Z,10.52
2023-05-04T23:10:45.370Z,10.51
2023-05-04T23:13:14.517Z,10.48
2023-05-04T23:15:42.000Z,10.55
2023-05-04T23:18:09.637Z,10.35
2023-05-04T23:20:37.204Z,10.31
2023-05-04T23:23:04.615Z,10.34
2023-05-04T23:25:32.028Z,10.35
2023-05-04T23:27:59.389Z,10.12
2023-05-04T23:30:28.122Z,10.18
2023-05-04T23:32:55.741Z,10.30
2023-05-04T23:35:23.802Z,10.19
2023-05-04T23:37:51.382Z,10.19
2023-05-04T23:40:18.899Z,10.24
2023-05-04T23:42:49.660Z,10.24
2023-05-04T23:45:17.297Z,10.11
2023-05-04T23:47:46.068Z,10.00
2023-05-04T23:50:13.624Z,10.02
2023-05-04T23:52:41.011Z,10.05
2023-05-04T23:55:08.901Z,10.00
2023-05-04T23:57:36.389Z,9.85
